New Milford, Connecticut
Current Conditions -  °F | °C
As of 5:53 AM on Saturday 22 Nov 2014 (Local Time) from KDXR Reporting Station
Clear Clear  
Wind Chill: 16°   Ceiling: Unl
Heat Index: 16°   Visibility: 10mi
Dew Point: 10°   Wind: 0mph
Humidity: 77%   Direction: NA
Pressure: 30.45"   Gusts: NA
Location:  41.58°N, 73.41°W
Report Text: KDXR 221053Z AUTO 00000KT 10SM CLR M09/M12 A3045 RMK AO2 SLP319 T10891122
Loading
Personal Weather Stations






























Interactive Weather Map New forecast layout! Learn more

10-Day Weather Forecast

Advertisements
Track Severe Weather on mobile